メインページ
METAR-TAF:

METAR-TAF

空港 :

スーセントマリー, ミシガン州, アメリカ合衆国

緯度: 46-15N, 経度: 084-28W, 海抜: 244m

現時点の気象観測

当レポートは37分前の01:56(UTC)に作成
西の風 7kt
気温 -7°C
湿度 93%
気圧 1025 hPa
視程: 12.9km
高度2900ftの曇り
小雪

METAR: KCIU 070156Z AUTO 27007KT 8SM -SN OVC029 M07/M08 A3027 RMK AO2 SLP261 P0000 T10671083 FZRANO

時間: 21:33 (02:33 UTC)


TAF: 見つかりません

4,000以上の空港の気象観測と天気予報(METAR報とTAF報)

利用可能な観測所は地図上に黄色い丸と赤い丸で示す。

丸の上にカーソルを重ねると観測所名を参照できる。

次にクリックすると気象観測と天気予報を参照できる。

マップの切り替え:黒色「×」印の緑ボタンをクリックして拡大、「-」印の緑ボタンをクリックして縮小、緑色の三角印をクリックして隣りの地図に切り替え


METAR-TAF: